createdAt,value
2019-06-08T00:00:27.914Z,8.93
2019-06-08T00:02:57.744Z,9.60
2019-06-08T00:05:27.572Z,10.20
2019-06-08T00:07:57.487Z,9.27
2019-06-08T00:10:27.309Z,9.70
2019-06-08T00:12:57.084Z,9.50
2019-06-08T00:15:26.985Z,8.70
2019-06-08T00:17:59.350Z,10.57
2019-06-08T00:20:28.386Z,9.00
2019-06-08T00:22:58.297Z,9.20
2019-06-08T00:25:28.095Z,9.13
2019-06-08T00:27:58.083Z,9.57
2019-06-08T00:30:28.838Z,8.90
2019-06-08T00:32:58.860Z,9.20
2019-06-08T00:35:28.689Z,8.83
2019-06-08T00:37:58.617Z,9.47
2019-06-08T00:40:28.394Z,8.97
2019-06-08T00:42:58.235Z,9.47
2019-06-08T00:45:28.019Z,8.97
2019-06-08T00:47:57.878Z,9.23
2019-06-08T00:50:29.222Z,9.53
2019-06-08T00:52:59.288Z,9.40
2019-06-08T00:55:29.903Z,9.17
2019-06-08T00:57:59.847Z,8.20
2019-06-08T01:00:30.717Z,8.10
2019-06-08T01:03:00.723Z,8.77
2019-06-08T01:05:30.605Z,8.40
2019-06-08T01:08:00.430Z,10.47
2019-06-08T01:10:30.590Z,9.93
2019-06-08T01:13:00.406Z,8.53
2019-06-08T01:15:34.083Z,9.67
2019-06-08T01:18:04.123Z,10.30
2019-06-08T01:20:52.169Z,9.00
2019-06-08T01:23:29.877Z,8.07
2019-06-08T01:25:59.731Z,8.70
2019-06-08T01:28:30.266Z,9.30
2019-06-08T01:31:00.389Z,10.03
2019-06-08T01:33:30.874Z,9.23
2019-06-08T01:36:00.799Z,8.63
2019-06-08T01:38:31.212Z,7.83
2019-06-08T01:41:01.299Z,7.20
2019-06-08T01:43:31.804Z,7.53
2019-06-08T01:46:01.700Z,8.07
2019-06-08T01:48:32.308Z,7.00
2019-06-08T01:51:02.340Z,6.63
2019-06-08T01:53:32.999Z,6.60
2019-06-08T01:56:03.023Z,7.00
2019-06-08T01:58:33.513Z,6.93
2019-06-08T02:01:03.567Z,7.03
2019-06-08T02:03:34.789Z,7.63
2019-06-08T02:06:04.925Z,6.20
2019-06-08T02:08:34.854Z,6.63
2019-06-08T02:11:05.161Z,7.20
2019-06-08T02:13:35.257Z,6.50
2019-06-08T02:16:05.595Z,6.70
2019-06-08T02:18:47.076Z,6.30
2019-06-08T02:21:07.051Z,8.30
2019-06-08T02:23:36.984Z,8.70
2019-06-08T02:26:06.872Z,6.70
2019-06-08T02:28:36.800Z,6.63
2019-06-08T02:31:06.927Z,7.23
2019-06-08T02:33:37.351Z,9.57
2019-06-08T02:36:07.376Z,7.17
2019-06-08T02:38:37.263Z,6.20
2019-06-08T02:41:07.573Z,6.60
2019-06-08T02:43:38.391Z,7.17
2019-06-08T02:46:09.169Z,7.77
2019-06-08T02:49:00.279Z,8.30
2019-06-08T02:51:10.734Z,7.03
2019-06-08T02:53:41.555Z,8.17
2019-06-08T02:56:16.403Z,6.07
2019-06-08T02:58:46.860Z,6.23
2019-06-08T03:01:19.605Z,6.23
2019-06-08T03:03:51.801Z,7.43
2019-06-08T03:06:22.416Z,6.90
2019-06-08T03:08:54.541Z,7.57
2019-06-08T03:11:26.139Z,6.50
2019-06-08T03:13:58.658Z,6.67
2019-06-08T03:16:28.427Z,6.87
2019-06-08T03:18:58.255Z,6.30
2019-06-08T03:21:28.120Z,9.03
2019-06-08T03:23:57.907Z,6.13
2019-06-08T03:26:28.005Z,6.33
2019-06-08T03:28:57.828Z,6.13
2019-06-08T03:31:27.641Z,6.57
2019-06-08T03:33:57.545Z,9.30
2019-06-08T03:36:27.387Z,5.57
2019-06-08T03:38:57.259Z,6.50
2019-06-08T03:41:27.101Z,5.93
2019-06-08T03:43:56.880Z,5.50
2019-06-08T03:46:26.705Z,6.30
2019-06-08T03:48:56.524Z,6.30
2019-06-08T03:51:26.339Z,5.43
2019-06-08T03:53:56.115Z,6.23
2019-06-08T03:56:26.812Z,6.00
2019-06-08T03:58:56.826Z,6.00
2019-06-08T04:01:26.633Z,5.60
2019-06-08T04:03:59.949Z,5.77
2019-06-08T04:06:27.996Z,6.13
2019-06-08T04:08:57.777Z,5.70
2019-06-08T04:11:27.687Z,5.10
2019-06-08T04:13:57.581Z,6.00
2019-06-08T04:16:27.512Z,5.40
2019-06-08T04:18:57.420Z,6.57
2019-06-08T04:21:27.302Z,5.43
2019-06-08T04:23:57.249Z,7.27
2019-06-08T04:26:27.049Z,8.03
2019-06-08T04:28:57.194Z,6.20
2019-06-08T04:31:27.099Z,5.40
2019-06-08T04:33:56.932Z,8.67
2019-06-08T04:36:26.781Z,5.73
2019-06-08T04:38:56.621Z,6.17
2019-06-08T04:41:26.503Z,6.60
2019-06-08T04:43:56.833Z,5.83
2019-06-08T04:46:26.687Z,5.80
2019-06-08T04:48:56.571Z,6.60
2019-06-08T04:51:26.360Z,6.83
2019-06-08T04:53:56.259Z,6.17
2019-06-08T04:56:26.117Z,6.60
2019-06-08T04:58:55.899Z,5.57
2019-06-08T05:01:25.714Z,6.23
2019-06-08T05:03:55.787Z,5.33
2019-06-08T05:06:25.694Z,7.47
2019-06-08T05:08:55.595Z,6.20
2019-06-08T05:11:25.404Z,7.50
2019-06-08T05:13:55.252Z,5.93
2019-06-08T05:16:25.070Z,5.53
2019-06-08T05:18:54.939Z,6.80
2019-06-08T05:21:24.719Z,4.80
2019-06-08T05:23:58.743Z,6.03
2019-06-08T05:26:26.112Z,6.40
2019-06-08T05:28:55.891Z,5.50
2019-06-08T05:31:25.732Z,7.07
2019-06-08T05:33:55.554Z,5.87
2019-06-08T05:36:25.514Z,5.13
2019-06-08T05:38:55.335Z,7.07
2019-06-08T05:41:25.486Z,5.60
2019-06-08T05:43:55.300Z,6.57
2019-06-08T05:46:25.240Z,7.53
2019-06-08T05:48:55.109Z,5.40
2019-06-08T05:51:24.981Z,6.00
2019-06-08T05:53:54.828Z,6.30
2019-06-08T05:56:24.795Z,7.50
2019-06-08T05:58:54.595Z,6.63
2019-06-08T06:01:24.556Z,9.10
2019-06-08T06:03:54.391Z,6.30
2019-06-08T06:06:24.286Z,9.07
2019-06-08T06:08:54.215Z,6.30
2019-06-08T06:11:24.110Z,6.47
2019-06-08T06:13:53.973Z,6.63
2019-06-08T06:16:23.807Z,6.90
2019-06-08T06:18:53.631Z,6.33
2019-06-08T06:21:23.461Z,8.93
2019-06-08T06:23:53.400Z,6.80
2019-06-08T06:26:23.195Z,7.03
2019-06-08T06:28:53.131Z,7.20
2019-06-08T06:31:22.933Z,7.33
2019-06-08T06:33:52.764Z,8.47
2019-06-08T06:36:22.592Z,7.87
2019-06-08T06:38:52.420Z,8.87
2019-06-08T06:41:22.265Z,7.90
2019-06-08T06:43:52.298Z,12.40
2019-06-08T06:46:22.235Z,8.77
2019-06-08T06:48:52.535Z,8.73
2019-06-08T06:51:26.300Z,10.60
2019-06-08T06:53:54.118Z,9.17
2019-06-08T06:56:23.958Z,12.00
2019-06-08T06:58:53.846Z,9.30
2019-06-08T07:01:23.890Z,10.37
2019-06-08T07:03:54.354Z,9.63
2019-06-08T07:06:24.300Z,9.30
2019-06-08T07:08:54.604Z,10.20
2019-06-08T07:11:24.667Z,10.87
2019-06-08T07:13:55.151Z,10.67
2019-06-08T07:16:25.113Z,11.43
2019-06-08T07:18:55.071Z,10.93
2019-06-08T07:21:24.861Z,13.27
2019-06-08T07:23:56.194Z,11.23
2019-06-08T07:26:26.329Z,11.30
2019-06-08T07:28:56.201Z,12.07
2019-06-08T07:31:26.039Z,11.20
2019-06-08T07:33:55.956Z,13.30
2019-06-08T07:36:25.754Z,12.30
2019-06-08T07:38:55.576Z,13.97
2019-06-08T07:41:25.474Z,12.93
2019-06-08T07:43:56.420Z,13.97
2019-06-08T07:46:26.557Z,12.90
2019-06-08T07:48:56.683Z,12.10
2019-06-08T07:51:26.552Z,11.23
2019-06-08T07:53:56.429Z,11.27
2019-06-08T07:56:26.226Z,13.40
2019-06-08T07:58:57.057Z,10.50
2019-06-08T08:01:35.680Z,12.03
2019-06-08T08:03:58.540Z,13.67
2019-06-08T08:06:30.547Z,11.60
2019-06-08T08:08:59.924Z,12.10
2019-06-08T08:11:29.773Z,11.83
2019-06-08T08:13:59.565Z,11.47
2019-06-08T08:16:29.583Z,11.17
2019-06-08T08:18:59.717Z,10.77
2019-06-08T08:21:29.871Z,13.07
2019-06-08T08:24:01.490Z,11.17
2019-06-08T08:26:34.222Z,12.23
2019-06-08T08:29:04.527Z,10.97
2019-06-08T08:31:34.399Z,10.50
2019-06-08T08:34:05.980Z,10.30
2019-06-08T08:36:37.944Z,11.20
2019-06-08T08:39:08.611Z,10.20
2019-06-08T08:41:39.155Z,11.43
2019-06-08T08:44:09.148Z,10.90
2019-06-08T08:46:39.066Z,12.00
2019-06-08T08:49:12.313Z,10.60
2019-06-08T08:51:40.348Z,16.37
2019-06-08T08:54:10.272Z,11.03
2019-06-08T08:56:40.114Z,11.33
2019-06-08T08:59:10.859Z,11.73
2019-06-08T09:01:41.103Z,12.53
2019-06-08T09:04:11.001Z,10.77
2019-06-08T09:06:40.792Z,11.27
2019-06-08T09:09:10.737Z,13.47
2019-06-08T09:11:41.283Z,12.57
2019-06-08T09:14:13.887Z,12.10
2019-06-08T09:16:43.135Z,12.60
2019-06-08T09:19:12.919Z,12.13
2019-06-08T09:21:42.741Z,11.67
2019-06-08T09:24:12.918Z,11.33
2019-06-08T09:26:42.790Z,11.87
2019-06-08T09:29:12.546Z,11.00
2019-06-08T09:31:42.390Z,10.73
2019-06-08T09:34:15.481Z,13.10
2019-06-08T09:36:43.905Z,11.40
2019-06-08T09:39:13.913Z,10.97
2019-06-08T09:41:43.883Z,10.87
2019-06-08T09:44:13.911Z,11.83
2019-06-08T09:46:43.918Z,10.23
2019-06-08T09:49:13.877Z,10.57
2019-06-08T09:51:43.758Z,13.67
2019-06-08T09:54:14.024Z,11.17
2019-06-08T09:56:43.903Z,10.67
2019-06-08T09:59:15.395Z,12.03
2019-06-08T10:01:45.220Z,12.20
2019-06-08T10:04:15.070Z,10.83
2019-06-08T10:06:47.790Z,10.53
2019-06-08T10:09:18.669Z,11.57
2019-06-08T10:11:48.161Z,11.90
2019-06-08T10:14:18.761Z,10.70
2019-06-08T10:16:48.903Z,11.30
2019-06-08T10:19:18.838Z,11.50
2019-06-08T10:21:48.842Z,11.27
2019-06-08T10:24:18.651Z,11.57
2019-06-08T10:26:48.546Z,12.73
2019-06-08T10:29:18.586Z,11.37
2019-06-08T10:31:48.603Z,10.97
2019-06-08T10:34:18.455Z,10.37
2019-06-08T10:36:48.271Z,10.47
2019-06-08T10:39:18.063Z,11.47
2019-06-08T10:41:51.334Z,10.40
2019-06-08T10:44:19.545Z,10.43
2019-06-08T10:46:49.436Z,10.30
2019-06-08T10:49:19.401Z,9.33
2019-06-08T10:51:49.377Z,11.00
2019-06-08T10:54:19.206Z,9.40
2019-06-08T10:56:49.046Z,10.33
2019-06-08T10:59:18.811Z,9.07
2019-06-08T11:01:48.658Z,12.57
2019-06-08T11:04:18.679Z,10.20
2019-06-08T11:06:48.691Z,9.03
2019-06-08T11:09:19.056Z,10.03
2019-06-08T11:11:49.414Z,12.27
2019-06-08T11:14:22.527Z,10.47
2019-06-08T11:16:50.790Z,9.03
2019-06-08T11:19:20.725Z,10.17
2019-06-08T11:21:50.542Z,9.90
2019-06-08T11:24:24.407Z,10.43
2019-06-08T11:26:51.984Z,9.70
2019-06-08T11:29:21.772Z,9.50
2019-06-08T11:31:51.568Z,10.30
2019-06-08T11:34:21.785Z,9.77
2019-06-08T11:36:52.053Z,10.17
2019-06-08T11:39:22.021Z,9.53
2019-06-08T11:41:51.845Z,9.67
2019-06-08T11:44:21.741Z,10.67
2019-06-08T11:46:51.480Z,14.73
2019-06-08T11:49:21.329Z,9.50
2019-06-08T11:51:51.144Z,8.97
2019-06-08T11:54:32.322Z,9.50
2019-06-08T11:56:54.543Z,8.73
2019-06-08T11:59:25.591Z,11.33
2019-06-08T12:01:55.412Z,10.30
2019-06-08T12:04:25.334Z,12.50
2019-06-08T12:06:55.192Z,11.97
2019-06-08T12:09:24.995Z,11.73
2019-06-08T12:11:54.819Z,11.50
2019-06-08T12:14:24.639Z,11.03
2019-06-08T12:16:54.462Z,12.77
2019-06-08T12:19:24.308Z,11.83
2019-06-08T12:21:54.110Z,12.10
2019-06-08T12:24:24.085Z,12.47
2019-06-08T12:27:00.031Z,13.27
2019-06-08T12:29:25.404Z,11.03
2019-06-08T12:31:55.321Z,11.10
2019-06-08T12:34:25.383Z,10.60
2019-06-08T12:36:55.149Z,12.37
2019-06-08T12:39:24.963Z,10.37
2019-06-08T12:41:54.785Z,10.17
2019-06-08T12:44:26.788Z,9.33
2019-06-08T12:46:58.380Z,11.83
2019-06-08T12:49:27.696Z,7.47
2019-06-08T12:51:58.368Z,8.57
2019-06-08T12:54:28.415Z,8.97
2019-06-08T12:57:00.716Z,7.93
2019-06-08T12:59:29.753Z,10.03
2019-06-08T13:01:59.588Z,10.60
2019-06-08T13:04:29.416Z,8.07
2019-06-08T13:06:59.254Z,10.77
2019-06-08T13:09:30.036Z,9.53
2019-06-08T13:11:59.965Z,7.93
2019-06-08T13:14:29.839Z,9.13
2019-06-08T13:17:01.111Z,7.10
2019-06-08T13:19:31.067Z,10.87
2019-06-08T13:22:00.903Z,8.00
2019-06-08T13:24:30.672Z,6.83
2019-06-08T13:27:00.488Z,7.93
2019-06-08T13:29:30.339Z,9.57
2019-06-08T13:32:01.563Z,6.77
2019-06-08T13:34:31.779Z,8.77
2019-06-08T13:37:01.618Z,7.83
2019-06-08T13:39:31.445Z,8.23
2019-06-08T13:42:01.275Z,8.63
2019-06-08T13:44:31.094Z,7.20
2019-06-08T13:47:01.017Z,8.23
2019-06-08T13:49:31.044Z,6.50
2019-06-08T13:52:01.044Z,7.20
2019-06-08T13:54:31.314Z,8.20
2019-06-08T13:57:01.253Z,8.00
2019-06-08T13:59:31.143Z,8.57
2019-06-08T14:02:01.420Z,11.13
2019-06-08T14:04:32.994Z,10.20
2019-06-08T14:07:02.952Z,9.10
2019-06-08T14:09:33.138Z,8.50
2019-06-08T14:12:03.045Z,11.07
2019-06-08T14:14:33.712Z,8.47
2019-06-08T14:17:03.689Z,8.80
2019-06-08T14:19:33.597Z,6.90
2019-06-08T14:22:03.349Z,7.90
2019-06-08T14:24:34.778Z,7.13
2019-06-08T14:27:04.745Z,7.87
2019-06-08T14:29:34.606Z,7.70
2019-06-08T14:32:04.536Z,6.03
2019-06-08T14:34:34.357Z,9.10
2019-06-08T14:37:04.297Z,11.20
2019-06-08T14:39:34.131Z,9.00
2019-06-08T14:42:03.904Z,10.87
2019-06-08T14:44:34.076Z,7.17
2019-06-08T14:47:14.368Z,7.30
2019-06-08T14:49:48.827Z,7.53
2019-06-08T14:52:20.434Z,8.53
2019-06-08T14:54:51.255Z,7.77
2019-06-08T14:57:21.347Z,9.70
2019-06-08T14:59:51.337Z,10.57
2019-06-08T15:02:21.266Z,7.17
2019-06-08T15:04:51.168Z,8.80
2019-06-08T15:07:23.429Z,10.00
2019-06-08T15:09:52.662Z,13.47
2019-06-08T15:12:23.499Z,8.83
2019-06-08T15:14:53.422Z,8.40
2019-06-08T15:17:23.762Z,9.57
2019-06-08T15:19:53.927Z,9.17
2019-06-08T15:22:24.191Z,7.87
2019-06-08T15:24:54.048Z,9.23
2019-06-08T15:27:25.868Z,8.40
2019-06-08T15:29:55.398Z,8.60
2019-06-08T15:32:28.048Z,8.80
2019-06-08T15:34:57.731Z,9.70
2019-06-08T15:37:29.324Z,7.73
2019-06-08T15:39:59.252Z,9.97
2019-06-08T15:42:30.747Z,11.43
2019-06-08T15:45:00.664Z,10.13
2019-06-08T15:47:30.444Z,10.90
2019-06-08T15:50:00.340Z,10.57
2019-06-08T15:52:32.564Z,9.23
2019-06-08T15:55:01.764Z,8.33
2019-06-08T15:57:36.637Z,7.67
2019-06-08T16:00:03.240Z,10.27
2019-06-08T16:02:33.919Z,10.27
2019-06-08T16:05:04.022Z,9.60
2019-06-08T16:07:35.601Z,7.87
2019-06-08T16:10:06.170Z,10.77
2019-06-08T16:12:36.093Z,10.23
2019-06-08T16:15:06.706Z,9.20
2019-06-08T16:17:36.768Z,11.27
2019-06-08T16:20:06.991Z,9.43
2019-06-08T16:22:36.806Z,9.93
2019-06-08T16:25:06.831Z,9.70
2019-06-08T16:27:36.649Z,10.40
2019-06-08T16:30:09.487Z,9.43
2019-06-08T16:32:39.810Z,10.03
2019-06-08T16:35:09.960Z,9.23
2019-06-08T16:37:39.970Z,10.27
2019-06-08T16:40:10.163Z,11.60
2019-06-08T16:42:39.979Z,10.00
2019-06-08T16:45:10.013Z,9.07
2019-06-08T16:47:43.239Z,10.23
2019-06-08T16:50:24.135Z,8.63
2019-06-08T16:52:43.651Z,8.33
2019-06-08T16:55:13.448Z,7.57
2019-06-08T16:57:43.326Z,6.97
2019-06-08T17:00:31.154Z,9.37
2019-06-08T17:02:45.350Z,6.47
2019-06-08T17:05:15.377Z,7.97
2019-06-08T17:07:45.257Z,9.97
2019-06-08T17:10:15.270Z,7.97
2019-06-08T17:12:45.072Z,9.43
2019-06-08T17:15:15.968Z,11.17
2019-06-08T17:17:45.863Z,10.03
2019-06-08T17:20:17.643Z,10.90
2019-06-08T17:22:47.487Z,11.37
2019-06-08T17:25:18.926Z,9.17
2019-06-08T17:27:48.808Z,12.00
2019-06-08T17:30:18.680Z,9.97
2019-06-08T17:32:48.622Z,10.23
2019-06-08T17:35:18.625Z,9.33
2019-06-08T17:37:48.400Z,9.97
2019-06-08T17:40:18.380Z,9.40
2019-06-08T17:42:48.180Z,9.97
2019-06-08T17:45:18.367Z,10.30
2019-06-08T17:47:48.202Z,10.60
2019-06-08T17:50:18.533Z,10.73
2019-06-08T17:52:48.366Z,11.83
2019-06-08T17:55:18.165Z,10.00
2019-06-08T17:57:53.200Z,10.30
2019-06-08T18:00:20.056Z,9.37
2019-06-08T18:02:49.955Z,11.30
2019-06-08T18:05:19.758Z,10.30
2019-06-08T18:07:49.686Z,11.37
2019-06-08T18:10:19.479Z,10.70
2019-06-08T18:12:49.509Z,10.87
2019-06-08T18:15:19.736Z,10.97
2019-06-08T18:17:49.523Z,10.93
2019-06-08T18:20:19.556Z,11.80
2019-06-08T18:22:50.151Z,10.83
2019-06-08T18:25:20.112Z,10.33
2019-06-08T18:28:05.538Z,10.97
2019-06-08T18:30:24.047Z,12.33
2019-06-08T18:32:53.967Z,10.97
2019-06-08T18:35:23.770Z,11.13
2019-06-08T18:37:54.254Z,12.00
2019-06-08T18:40:24.141Z,11.07
2019-06-08T18:42:54.663Z,13.13
2019-06-08T18:45:24.603Z,11.63
2019-06-08T18:47:53.711Z,11.20
2019-06-08T18:50:23.589Z,10.40
2019-06-08T18:52:53.467Z,10.70
2019-06-08T18:55:23.281Z,10.50
2019-06-08T18:57:53.048Z,11.17
2019-06-08T19:00:37.993Z,10.67
2019-06-08T19:03:07.787Z,12.03
2019-06-08T19:05:40.656Z,10.90
2019-06-08T19:08:10.619Z,10.47
2019-06-08T19:10:42.341Z,12.60
2019-06-08T19:13:12.661Z,12.73
2019-06-08T19:15:45.508Z,12.10
2019-06-08T19:18:14.302Z,9.67
2019-06-08T19:20:47.231Z,10.47
2019-06-08T19:23:20.687Z,10.33
2019-06-08T19:25:49.187Z,10.50
2019-06-08T19:28:32.666Z,10.27
2019-06-08T19:30:51.538Z,11.17
2019-06-08T19:33:21.484Z,10.43
2019-06-08T19:35:53.598Z,9.60
2019-06-08T19:38:22.784Z,9.70
2019-06-08T19:40:52.536Z,11.90
2019-06-08T19:43:22.315Z,10.30
2019-06-08T19:45:52.294Z,10.77
2019-06-08T19:48:22.245Z,10.27
2019-06-08T19:50:54.191Z,11.00
2019-06-08T19:53:23.471Z,12.50
2019-06-08T19:55:54.167Z,10.37
2019-06-08T19:58:24.159Z,13.67
2019-06-08T20:00:54.926Z,10.90
2019-06-08T20:03:27.368Z,10.87
2019-06-08T20:05:56.651Z,11.90
2019-06-08T20:08:28.590Z,11.93
2019-06-08T20:10:57.922Z,11.67
2019-06-08T20:13:27.841Z,12.40
2019-06-08T20:16:01.869Z,12.67
2019-06-08T20:18:29.244Z,12.83
2019-06-08T20:20:59.148Z,12.77
2019-06-08T20:23:29.040Z,12.90
2019-06-08T20:26:00.694Z,14.00
2019-06-08T20:28:30.328Z,13.03
2019-06-08T20:31:00.748Z,14.00
2019-06-08T20:33:30.668Z,13.03
2019-06-08T20:36:00.478Z,12.90
2019-06-08T20:38:37.261Z,12.70
2019-06-08T20:41:01.871Z,13.33
2019-06-08T20:43:31.755Z,13.00
2019-06-08T20:46:01.571Z,12.93
2019-06-08T20:48:31.477Z,12.40
2019-06-08T20:51:01.286Z,14.53
2019-06-08T20:53:31.163Z,13.73
2019-06-08T20:56:00.976Z,14.27
2019-06-08T20:58:30.826Z,15.13
2019-06-08T21:01:00.563Z,13.87
2019-06-08T21:03:30.415Z,14.20
2019-06-08T21:06:00.187Z,14.47
2019-06-08T21:08:30.025Z,13.87
2019-06-08T21:10:59.886Z,14.43
2019-06-08T21:13:29.815Z,15.57
2019-06-08T21:16:00.804Z,16.40
2019-06-08T21:18:30.987Z,15.77
2019-06-08T21:21:00.746Z,15.97
2019-06-08T21:23:32.142Z,15.60
2019-06-08T21:26:02.188Z,15.83
2019-06-08T21:28:31.971Z,15.17
2019-06-08T21:31:02.411Z,15.97
2019-06-08T21:33:32.396Z,16.80
2019-06-08T21:36:04.990Z,18.00
2019-06-08T21:38:33.817Z,17.33
2019-06-08T21:41:03.642Z,17.37
2019-06-08T21:43:33.473Z,17.77
2019-06-08T21:46:03.296Z,17.07
2019-06-08T21:48:33.112Z,17.20
2019-06-08T21:51:02.983Z,16.60
2019-06-08T21:53:33.028Z,17.47
2019-06-08T21:56:02.980Z,16.63
2019-06-08T21:58:32.928Z,17.50
2019-06-08T22:01:02.927Z,17.57
2019-06-08T22:03:32.788Z,17.80
2019-06-08T22:06:02.675Z,17.57
2019-06-08T22:08:32.536Z,16.77
2019-06-08T22:11:02.735Z,17.77
2019-06-08T22:13:32.649Z,17.80
2019-06-08T22:16:04.235Z,18.93
2019-06-08T22:18:34.045Z,19.23
2019-06-08T22:21:03.840Z,16.90
2019-06-08T22:23:33.660Z,17.80
2019-06-08T22:26:03.691Z,17.33
2019-06-08T22:28:33.651Z,17.43
2019-06-08T22:31:03.824Z,17.53
2019-06-08T22:33:33.689Z,17.30
2019-06-08T22:36:03.583Z,17.40
2019-06-08T22:38:33.399Z,17.23
2019-06-08T22:41:03.528Z,18.07
2019-06-08T22:43:33.350Z,17.03
2019-06-08T22:46:03.547Z,17.63
2019-06-08T22:48:33.403Z,19.80
2019-06-08T22:51:04.288Z,18.53
2019-06-08T22:53:34.304Z,17.80
2019-06-08T22:56:04.500Z,18.00
2019-06-08T22:58:34.515Z,18.73
2019-06-08T23:01:07.874Z,19.47
2019-06-08T23:03:35.848Z,19.23
2019-06-08T23:06:08.593Z,19.53
2019-06-08T23:08:37.522Z,19.93
2019-06-08T23:11:08.518Z,19.47
2019-06-08T23:13:38.649Z,20.13
2019-06-08T23:16:09.016Z,20.00
2019-06-08T23:18:39.059Z,20.53
2019-06-08T23:21:09.061Z,20.37
2019-06-08T23:23:39.009Z,21.67
2019-06-08T23:26:10.509Z,21.27
2019-06-08T23:28:40.587Z,20.43
2019-06-08T23:31:19.773Z,20.43
2019-06-08T23:33:50.625Z,20.30
2019-06-08T23:36:45.425Z,20.83
2019-06-08T23:38:51.863Z,20.10
2019-06-08T23:41:21.679Z,19.37
2019-06-08T23:43:51.695Z,19.10
2019-06-08T23:46:21.596Z,19.00
2019-06-08T23:48:51.424Z,20.13
2019-06-08T23:51:21.297Z,19.87
2019-06-08T23:53:51.081Z,20.60
2019-06-08T23:56:20.933Z,19.20
2019-06-08T23:58:50.802Z,19.93
